createdAt,value
2019-04-21T00:00:35.531Z,35.61
2019-04-21T00:03:11.487Z,35.48
2019-04-21T00:05:58.813Z,35.39
2019-04-21T00:11:02.838Z,35.52
2019-04-21T00:13:28.095Z,34.94
2019-04-21T00:15:48.905Z,35.14
2019-04-21T00:18:40.692Z,35.09
2019-04-21T00:21:13.805Z,35.44
2019-04-21T00:23:55.267Z,35.17
2019-04-21T00:26:24.050Z,35.41
2019-04-21T00:28:59.434Z,35.32
2019-04-21T00:31:24.675Z,35.41
2019-04-21T00:33:41.000Z,34.67
2019-04-21T00:36:13.340Z,35.15
2019-04-21T00:39:09.980Z,35.26
2019-04-21T00:41:30.839Z,34.81
2019-04-21T00:43:54.187Z,34.69
2019-04-21T00:46:29.264Z,34.72
2019-04-21T00:48:57.376Z,34.69
2019-04-21T00:51:43.912Z,34.65
2019-04-21T00:54:12.649Z,34.94
2019-04-21T00:56:36.639Z,34.43
2019-04-21T00:59:11.820Z,34.27
2019-04-21T01:01:35.613Z,33.93
2019-04-21T01:04:11.332Z,34.13
2019-04-21T01:06:36.908Z,34.12
2019-04-21T01:09:02.669Z,34.03
2019-04-21T01:11:38.973Z,33.88
2019-04-21T01:14:11.771Z,33.95
2019-04-21T01:16:40.888Z,34.07
2019-04-21T01:19:05.064Z,34.62
2019-04-21T01:21:18.781Z,34.38
2019-04-21T01:23:48.628Z,34.66
2019-04-21T01:26:31.064Z,35.08
2019-04-21T01:29:06.970Z,35.40
2019-04-21T01:31:36.318Z,35.58
2019-04-21T01:34:11.654Z,35.74
2019-04-21T01:36:39.031Z,36.10
2019-04-21T01:39:14.964Z,36.52
2019-04-21T01:41:44.767Z,37.18
2019-04-21T01:44:14.663Z,37.58
2019-04-21T01:46:40.743Z,37.61
2019-04-21T01:49:10.525Z,37.50
2019-04-21T01:51:57.878Z,38.12
2019-04-21T01:54:28.611Z,38.04
2019-04-21T01:57:03.120Z,37.78
2019-04-21T01:59:33.444Z,38.26
2019-04-21T02:02:05.279Z,38.56
2019-04-21T02:04:41.731Z,38.20
2019-04-21T02:07:11.625Z,38.35
2019-04-21T02:09:38.122Z,38.87
2019-04-21T02:12:17.252Z,38.90
2019-04-21T02:14:46.062Z,39.16
2019-04-21T02:17:14.731Z,38.94
2019-04-21T02:19:36.347Z,39.11
2019-04-21T02:22:10.799Z,39.13
2019-04-21T02:24:51.569Z,38.34
2019-04-21T02:27:21.473Z,38.42
2019-04-21T02:29:47.138Z,38.59
2019-04-21T02:32:35.653Z,38.87
2019-04-21T02:35:04.016Z,38.78
2019-04-21T02:37:40.275Z,39.58
2019-04-21T02:40:04.286Z,39.67
2019-04-21T02:42:32.462Z,40.90
2019-04-21T02:45:06.589Z,42.14
2019-04-21T02:50:09.577Z,44.18
2019-04-21T02:52:35.495Z,44.55
2019-04-21T02:55:03.739Z,44.97
2019-04-21T02:57:41.293Z,45.46
2019-04-21T03:00:16.609Z,46.69
2019-04-21T03:08:37.931Z,47.41
2019-04-21T03:11:03.610Z,47.82
2019-04-21T03:16:07.311Z,50.35
2019-04-21T03:18:38.017Z,51.05
2019-04-21T03:21:15.790Z,51.03
2019-04-21T03:23:52.179Z,51.92
2019-04-21T03:26:24.927Z,51.28
2019-04-21T03:28:35.666Z,51.72
2019-04-21T03:34:28.855Z,53.29
2019-04-21T03:41:25.648Z,54.02
2019-04-21T03:43:52.523Z,53.44
2019-04-21T03:46:18.319Z,54.86
2019-04-21T03:51:23.175Z,55.14
2019-04-21T03:53:54.302Z,55.53
2019-04-21T03:56:44.384Z,55.69
2019-04-21T03:58:59.865Z,56.85
2019-04-21T04:01:22.138Z,56.80
2019-04-21T04:09:37.523Z,58.73
2019-04-21T04:12:02.478Z,58.17
2019-04-21T04:17:11.876Z,59.52
2019-04-21T04:19:39.317Z,59.06
2019-04-21T04:22:15.330Z,59.81
2019-04-21T04:27:35.273Z,58.84
2019-04-21T04:29:51.340Z,58.95
2019-04-21T04:32:25.307Z,58.62
2019-04-21T04:34:57.234Z,58.95
2019-04-21T04:40:14.253Z,59.44
2019-04-21T04:42:55.648Z,59.44
2019-04-21T04:45:30.563Z,58.58
2019-04-21T04:48:01.959Z,58.21
2019-04-21T04:50:29.879Z,58.54
2019-04-21T04:55:33.805Z,58.11
2019-04-21T05:00:34.604Z,57.86
2019-04-21T05:05:34.542Z,58.50
2019-04-21T05:08:12.080Z,58.84
2019-04-21T05:10:57.445Z,58.58
2019-04-21T05:13:07.696Z,58.71
2019-04-21T05:15:28.562Z,58.69
2019-04-21T05:18:05.383Z,58.80
2019-04-21T05:20:32.230Z,58.77
2019-04-21T05:23:02.983Z,59.03
2019-04-21T05:25:23.685Z,58.63
2019-04-21T05:27:55.362Z,58.34
2019-04-21T05:30:50.132Z,57.78
2019-04-21T05:33:43.001Z,57.97
2019-04-21T05:36:18.715Z,57.70
2019-04-21T05:39:07.207Z,57.52
2019-04-21T05:41:26.203Z,57.58
2019-04-21T05:44:03.798Z,57.83
2019-04-21T05:46:40.353Z,57.06
2019-04-21T05:49:10.900Z,56.90
2019-04-21T05:51:57.489Z,56.57
2019-04-21T05:54:39.386Z,56.38
2019-04-21T05:56:59.774Z,56.52
2019-04-21T05:59:35.494Z,55.96
2019-04-21T06:02:15.150Z,54.71
2019-04-21T06:05:03.153Z,54.58
2019-04-21T06:07:15.311Z,54.92
2019-04-21T06:09:46.802Z,55.10
2019-04-21T06:12:08.666Z,55.66
2019-04-21T06:14:43.973Z,55.27
2019-04-21T06:17:20.541Z,53.90
2019-04-21T06:19:49.418Z,54.15
2019-04-21T06:22:07.605Z,51.75
2019-04-21T06:24:54.254Z,51.75
2019-04-21T06:27:17.645Z,49.72
2019-04-21T06:29:44.211Z,47.67
2019-04-21T06:35:09.550Z,45.94
2019-04-21T06:37:46.900Z,45.73
2019-04-21T06:40:15.308Z,44.30
2019-04-21T06:42:40.194Z,42.94
2019-04-21T06:45:30.002Z,42.44
2019-04-21T06:47:47.432Z,40.13
2019-04-21T06:50:12.175Z,42.06
2019-04-21T06:55:15.616Z,38.08
2019-04-21T06:57:41.765Z,38.01
2019-04-21T07:00:10.126Z,38.67
2019-04-21T07:05:14.644Z,38.09
2019-04-21T07:07:43.318Z,37.60
2019-04-21T07:10:14.366Z,37.00
2019-04-21T07:12:39.401Z,37.69
2019-04-21T07:15:09.928Z,37.38
2019-04-21T07:17:45.465Z,37.21
2019-04-21T07:20:18.334Z,36.44
2019-04-21T07:22:48.066Z,34.18
2019-04-21T07:25:13.782Z,31.86
2019-04-21T07:27:50.626Z,29.00
2019-04-21T07:30:20.868Z,28.22
2019-04-21T07:32:56.322Z,27.26
2019-04-21T07:35:20.820Z,26.56
2019-04-21T07:37:57.895Z,26.56
2019-04-21T07:40:15.057Z,26.96
2019-04-21T07:42:46.679Z,26.67
2019-04-21T07:45:16.871Z,27.10
2019-04-21T07:47:57.895Z,27.03
2019-04-21T07:50:58.046Z,26.76
2019-04-21T07:53:48.211Z,27.10
2019-04-21T07:55:49.616Z,26.69
2019-04-21T07:58:35.451Z,26.70
2019-04-21T08:01:11.734Z,26.04
2019-04-21T08:03:38.839Z,25.57
2019-04-21T08:06:12.826Z,26.34
2019-04-21T08:08:41.026Z,28.22
2019-04-21T08:11:09.664Z,29.82
2019-04-21T08:13:44.915Z,30.21
2019-04-21T08:16:12.748Z,30.69
2019-04-21T08:21:15.444Z,30.96
2019-04-21T08:23:41.604Z,31.23
2019-04-21T08:26:33.801Z,30.84
2019-04-21T08:28:49.363Z,30.20
2019-04-21T08:31:18.905Z,30.51
2019-04-21T08:38:49.630Z,30.53
2019-04-21T08:41:18.395Z,30.39
2019-04-21T08:44:02.311Z,29.62
2019-04-21T08:46:20.252Z,29.61
2019-04-21T08:51:30.235Z,28.60
2019-04-21T08:53:55.121Z,28.02
2019-04-21T08:56:41.378Z,28.03
2019-04-21T08:59:38.828Z,27.74
2019-04-21T09:02:37.422Z,26.86
2019-04-21T09:04:58.639Z,27.54
2019-04-21T09:07:44.907Z,27.84
2019-04-21T09:10:02.915Z,27.89
2019-04-21T09:12:34.613Z,27.72
2019-04-21T09:15:01.172Z,28.09
2019-04-21T09:17:31.610Z,28.12
2019-04-21T09:20:13.807Z,28.17
2019-04-21T09:22:35.728Z,28.18
2019-04-21T09:25:01.585Z,28.17
2019-04-21T09:27:33.093Z,27.54
2019-04-21T09:29:53.974Z,27.60
2019-04-21T09:32:23.863Z,27.87
2019-04-21T09:34:51.331Z,27.79
2019-04-21T09:37:36.971Z,27.73
2019-04-21T09:39:55.927Z,27.73
2019-04-21T09:42:33.283Z,27.90
2019-04-21T09:44:59.453Z,27.10
2019-04-21T09:47:35.187Z,26.40
2019-04-21T09:49:56.301Z,26.53
2019-04-21T09:52:30.319Z,26.61
2019-04-21T09:55:04.095Z,26.96
2019-04-21T09:57:37.290Z,26.60
2019-04-21T10:00:04.849Z,26.09
2019-04-21T10:02:39.957Z,27.55
2019-04-21T10:04:59.474Z,25.80
2019-04-21T10:07:34.927Z,26.62
2019-04-21T10:10:00.221Z,25.97
2019-04-21T10:12:30.589Z,26.27
2019-04-21T10:14:59.781Z,25.60
2019-04-21T10:17:35.667Z,25.54
2019-04-21T10:20:07.113Z,25.70
2019-04-21T10:22:37.211Z,25.08
2019-04-21T10:25:07.590Z,25.60
2019-04-21T10:27:37.027Z,25.14
2019-04-21T10:30:07.856Z,25.12
2019-04-21T10:32:36.960Z,25.04
2019-04-21T10:35:07.457Z,24.94
2019-04-21T10:37:47.279Z,25.01
2019-04-21T10:40:09.654Z,24.00
2019-04-21T10:42:38.900Z,23.74
2019-04-21T10:45:09.133Z,24.53
2019-04-21T10:47:38.873Z,24.38
2019-04-21T10:50:08.745Z,24.49
2019-04-21T10:52:55.782Z,23.44
2019-04-21T10:55:41.716Z,23.92
2019-04-21T10:58:14.165Z,22.99
2019-04-21T11:00:44.077Z,23.14
2019-04-21T11:03:44.766Z,23.22
2019-04-21T11:06:16.971Z,22.20
2019-04-21T11:08:49.348Z,21.27
2019-04-21T11:11:16.762Z,20.46
2019-04-21T11:13:46.464Z,19.88
2019-04-21T11:16:15.586Z,19.88
2019-04-21T11:18:44.568Z,19.42
2019-04-21T11:21:13.559Z,19.39
2019-04-21T11:23:43.746Z,19.37
2019-04-21T11:26:13.909Z,19.25
2019-04-21T11:28:43.173Z,19.39
2019-04-21T11:31:13.268Z,19.98
2019-04-21T11:33:43.013Z,20.17
2019-04-21T11:36:13.222Z,20.27
2019-04-21T11:39:12.390Z,20.34
2019-04-21T11:41:31.833Z,20.11
2019-04-21T11:44:01.468Z,20.26
2019-04-21T11:46:30.792Z,20.37
2019-04-21T11:49:00.133Z,20.32
2019-04-21T11:51:29.153Z,20.46
2019-04-21T11:53:59.160Z,20.33
2019-04-21T11:56:28.239Z,20.26
2019-04-21T11:58:57.807Z,19.93
2019-04-21T12:01:27.643Z,19.78
2019-04-21T12:03:57.970Z,19.82
2019-04-21T12:06:32.217Z,20.06
2019-04-21T12:09:00.819Z,19.77
2019-04-21T12:11:29.418Z,19.35
2019-04-21T12:13:58.612Z,19.30
2019-04-21T12:16:28.802Z,19.53
2019-04-21T12:18:58.812Z,19.74
2019-04-21T12:21:32.032Z,19.84
2019-04-21T12:23:58.635Z,19.32
2019-04-21T12:26:28.314Z,19.39
2019-04-21T12:28:57.656Z,18.61
2019-04-21T12:31:51.746Z,18.48
2019-04-21T12:34:21.873Z,18.19
2019-04-21T12:36:51.003Z,17.85
2019-04-21T12:39:20.824Z,16.76
2019-04-21T12:41:50.806Z,16.42
2019-04-21T12:44:20.437Z,16.42
2019-04-21T12:46:49.790Z,15.92
2019-04-21T12:49:20.107Z,15.79
2019-04-21T12:51:49.299Z,15.40
2019-04-21T12:54:19.553Z,15.21
2019-04-21T12:56:49.577Z,15.22
2019-04-21T12:59:19.098Z,15.18
2019-04-21T13:01:48.633Z,15.64
2019-04-21T13:04:17.783Z,15.31
2019-04-21T13:06:47.620Z,14.55
2019-04-21T13:09:19.978Z,14.24
2019-04-21T13:11:47.370Z,14.35
2019-04-21T13:14:16.324Z,14.27
2019-04-21T13:16:47.686Z,13.76
2019-04-21T13:19:17.538Z,13.67
2019-04-21T13:21:47.816Z,13.40
2019-04-21T13:24:17.837Z,13.20
2019-04-21T13:26:52.754Z,13.22
2019-04-21T13:29:18.419Z,13.11
2019-04-21T13:31:48.085Z,12.77
2019-04-21T13:34:18.010Z,12.67
2019-04-21T13:36:47.680Z,12.44
2019-04-21T13:40:01.521Z,12.04
2019-04-21T13:42:16.578Z,13.01
2019-04-21T13:44:39.126Z,11.81
2019-04-21T13:47:08.205Z,11.37
2019-04-21T13:49:37.263Z,11.57
2019-04-21T13:52:06.735Z,11.37
2019-04-21T13:54:35.822Z,11.17
2019-04-21T13:57:04.967Z,10.92
2019-04-21T13:59:34.397Z,10.89
2019-04-21T14:02:04.749Z,11.09
2019-04-21T14:04:33.854Z,10.99
2019-04-21T14:07:02.594Z,10.83
2019-04-21T14:09:40.317Z,10.74
2019-04-21T14:12:03.354Z,10.27
2019-04-21T14:14:32.420Z,11.77
2019-04-21T14:17:03.934Z,12.85
2019-04-21T14:19:33.120Z,12.46
2019-04-21T14:22:03.323Z,13.03
2019-04-21T14:24:32.895Z,13.03
2019-04-21T14:27:02.692Z,12.58
2019-04-21T14:29:31.605Z,13.04
2019-04-21T14:32:00.501Z,13.47
2019-04-21T14:34:30.183Z,13.52
2019-04-21T14:36:59.097Z,13.66
2019-04-21T14:39:28.317Z,13.08
2019-04-21T14:41:58.129Z,11.76
2019-04-21T14:44:27.237Z,12.49
2019-04-21T14:47:09.661Z,12.28
2019-04-21T14:49:57.568Z,12.54
2019-04-21T14:52:32.989Z,11.72
2019-04-21T14:55:12.864Z,10.58
2019-04-21T14:57:43.236Z,10.18
2019-04-21T15:00:15.445Z,10.14
2019-04-21T15:02:45.556Z,10.15
2019-04-21T15:05:15.681Z,10.30
2019-04-21T15:07:45.483Z,10.87
2019-04-21T15:10:19.052Z,12.01
2019-04-21T15:12:45.709Z,11.37
2019-04-21T15:15:15.880Z,10.87
2019-04-21T15:17:46.275Z,10.89
2019-04-21T15:20:17.603Z,11.51
2019-04-21T15:22:46.305Z,11.45
2019-04-21T15:25:16.212Z,10.96
2019-04-21T15:27:46.533Z,10.77
2019-04-21T15:30:16.456Z,11.49
2019-04-21T15:32:46.477Z,12.16
2019-04-21T15:35:15.561Z,12.11
2019-04-21T15:37:45.927Z,12.37
2019-04-21T15:40:25.322Z,11.71
2019-04-21T15:42:48.375Z,9.52
2019-04-21T15:45:18.761Z,9.92
2019-04-21T15:47:47.737Z,10.02
2019-04-21T15:50:19.202Z,10.81
2019-04-21T15:52:48.095Z,10.06
2019-04-21T15:55:39.233Z,9.71
2019-04-21T15:58:18.706Z,9.92
2019-04-21T16:00:52.769Z,9.31
2019-04-21T16:03:22.653Z,9.25
2019-04-21T16:05:51.773Z,9.15
2019-04-21T16:08:21.985Z,9.21
2019-04-21T16:10:56.657Z,9.08
2019-04-21T16:13:21.857Z,9.05
2019-04-21T16:15:52.525Z,9.13
2019-04-21T16:18:22.482Z,9.03
2019-04-21T16:20:51.676Z,9.00
2019-04-21T16:23:20.593Z,8.90
2019-04-21T16:25:50.784Z,8.92
2019-04-21T16:28:19.908Z,8.58
2019-04-21T16:30:49.198Z,9.39
2019-04-21T16:33:18.791Z,9.89
2019-04-21T16:35:47.740Z,10.68
2019-04-21T16:38:17.533Z,11.02
2019-04-21T16:40:54.355Z,10.61
2019-04-21T16:43:18.359Z,10.45
2019-04-21T16:45:48.769Z,10.31
2019-04-21T16:48:19.045Z,10.27
2019-04-21T16:50:48.048Z,10.07
2019-04-21T16:53:24.359Z,10.13
2019-04-21T16:55:57.402Z,9.86
2019-04-21T16:58:30.821Z,10.51
2019-04-21T17:01:08.277Z,10.45
2019-04-21T17:03:34.593Z,10.50
2019-04-21T17:06:05.052Z,10.82
2019-04-21T17:08:34.309Z,11.33
2019-04-21T17:11:12.865Z,11.76
2019-04-21T17:13:34.026Z,11.90
2019-04-21T17:16:28.655Z,12.12
2019-04-21T17:18:47.549Z,12.53
2019-04-21T17:21:05.668Z,12.51
2019-04-21T17:23:35.557Z,13.09
2019-04-21T17:26:05.428Z,13.10
2019-04-21T17:28:34.491Z,13.07
2019-04-21T17:31:04.693Z,12.24
2019-04-21T17:33:35.236Z,12.01
2019-04-21T17:36:05.070Z,12.02
2019-04-21T17:38:34.271Z,12.13
2019-04-21T17:41:14.299Z,12.71
2019-04-21T17:43:34.418Z,12.75
2019-04-21T17:46:04.854Z,13.00
2019-04-21T17:48:34.667Z,12.76
2019-04-21T17:51:51.289Z,12.84
2019-04-21T17:54:25.776Z,12.49
2019-04-21T17:57:15.307Z,12.64
2019-04-21T17:59:50.872Z,12.82
2019-04-21T18:02:09.413Z,13.10
2019-04-21T18:04:40.913Z,13.83
2019-04-21T18:07:26.314Z,13.25
2019-04-21T18:10:00.239Z,13.92
2019-04-21T18:12:25.026Z,14.44
2019-04-21T18:14:52.996Z,14.76
2019-04-21T18:17:12.116Z,15.16
2019-04-21T18:19:45.179Z,16.32
2019-04-21T18:22:35.850Z,16.32
2019-04-21T18:25:06.670Z,16.82
2019-04-21T18:27:32.527Z,17.16
2019-04-21T18:30:04.535Z,18.28
2019-04-21T18:32:38.565Z,18.59
2019-04-21T18:35:14.201Z,18.48
2019-04-21T18:38:13.306Z,19.26
2019-04-21T18:40:38.706Z,19.85
2019-04-21T18:43:48.601Z,19.61
2019-04-21T18:46:20.632Z,19.44
2019-04-21T18:48:53.802Z,19.83
2019-04-21T18:51:37.720Z,20.59
2019-04-21T18:54:26.725Z,21.22
2019-04-21T18:56:37.009Z,22.95
2019-04-21T18:59:06.722Z,24.14
2019-04-21T19:01:38.387Z,23.44
2019-04-21T19:04:14.295Z,24.21
2019-04-21T19:06:54.555Z,24.14
2019-04-21T19:09:41.436Z,23.83
2019-04-21T19:12:00.709Z,24.16
2019-04-21T19:17:17.078Z,27.30
2019-04-21T19:22:06.252Z,25.18
2019-04-21T19:24:36.910Z,25.79
2019-04-21T19:27:13.174Z,26.49
2019-04-21T19:29:33.587Z,26.27
2019-04-21T19:32:08.359Z,26.77
2019-04-21T19:34:26.825Z,27.44
2019-04-21T19:37:03.062Z,28.15
2019-04-21T19:39:39.146Z,29.43
2019-04-21T19:42:05.653Z,26.71
2019-04-21T19:44:43.576Z,26.92
2019-04-21T19:47:17.216Z,27.33
2019-04-21T19:49:51.375Z,27.68
2019-04-21T19:52:05.254Z,28.90
2019-04-21T19:54:35.874Z,28.61
2019-04-21T19:57:00.749Z,28.81
2019-04-21T19:59:36.727Z,28.44
2019-04-21T20:02:02.544Z,29.17
2019-04-21T20:04:38.518Z,29.39
2019-04-21T20:07:21.999Z,29.72
2019-04-21T20:09:50.404Z,29.79
2019-04-21T20:12:29.726Z,30.07
2019-04-21T20:15:04.939Z,30.01
2019-04-21T20:17:18.995Z,30.81
2019-04-21T20:19:38.389Z,30.24
2019-04-21T20:22:07.338Z,31.33
2019-04-21T20:24:39.260Z,30.98
2019-04-21T20:27:15.557Z,32.46
2019-04-21T20:29:58.805Z,32.85
2019-04-21T20:32:31.712Z,33.49
2019-04-21T20:35:01.491Z,34.19
2019-04-21T20:37:25.440Z,33.81
2019-04-21T20:39:47.279Z,32.73
2019-04-21T20:42:24.213Z,33.78
2019-04-21T20:45:17.322Z,35.11
2019-04-21T20:47:23.241Z,35.95
2019-04-21T20:49:57.191Z,35.43
2019-04-21T20:52:38.417Z,36.39
2019-04-21T20:54:59.956Z,37.43
2019-04-21T20:57:29.985Z,38.08
2019-04-21T21:00:09.077Z,37.90
2019-04-21T21:02:41.718Z,38.49
2019-04-21T21:04:56.919Z,39.30
2019-04-21T21:10:20.480Z,41.03
2019-04-21T21:12:43.087Z,40.96
2019-04-21T21:15:00.091Z,41.27
2019-04-21T21:17:45.466Z,42.23
2019-04-21T21:20:13.465Z,42.73
2019-04-21T21:22:40.363Z,41.11
2019-04-21T21:25:19.331Z,42.67
2019-04-21T21:27:37.069Z,42.26
2019-04-21T21:30:10.153Z,43.38
2019-04-21T21:32:44.956Z,43.50
2019-04-21T21:37:49.010Z,44.94
2019-04-21T21:40:18.688Z,43.90
2019-04-21T21:42:34.360Z,44.30
2019-04-21T21:45:04.913Z,44.96
2019-04-21T21:47:49.352Z,46.03
2019-04-21T21:50:11.631Z,45.93
2019-04-21T21:52:45.235Z,44.99
2019-04-21T21:55:03.577Z,45.56
2019-04-21T21:57:40.518Z,45.46
2019-04-21T22:00:10.744Z,45.35
2019-04-21T22:02:40.872Z,45.50
2019-04-21T22:05:14.310Z,45.67
2019-04-21T22:07:38.838Z,45.92
2019-04-21T22:10:08.643Z,46.00
2019-04-21T22:12:45.738Z,45.14
2019-04-21T22:15:16.756Z,45.05
2019-04-21T22:17:54.322Z,47.38
2019-04-21T22:20:28.787Z,47.56
2019-04-21T22:22:53.650Z,47.24
2019-04-21T22:25:19.523Z,47.99
2019-04-21T22:27:43.493Z,48.39
2019-04-21T22:30:14.675Z,48.29
2019-04-21T22:32:52.760Z,48.58
2019-04-21T22:35:26.358Z,48.05
2019-04-21T22:37:58.026Z,44.74
2019-04-21T22:40:29.505Z,47.13
2019-04-21T22:42:59.332Z,48.10
2019-04-21T22:45:19.612Z,49.09
2019-04-21T22:47:49.501Z,43.59
2019-04-21T22:50:30.824Z,43.33
2019-04-21T22:53:04.742Z,43.48
2019-04-21T22:55:33.480Z,43.17
2019-04-21T22:58:02.040Z,42.58
2019-04-21T23:00:37.776Z,41.42
2019-04-21T23:03:09.723Z,40.96
2019-04-21T23:05:37.685Z,41.18
2019-04-21T23:08:07.041Z,41.38
2019-04-21T23:10:36.988Z,41.38
2019-04-21T23:13:11.251Z,41.94
2019-04-21T23:15:42.433Z,41.61
2019-04-21T23:18:23.348Z,40.50
2019-04-21T23:20:56.743Z,39.90
2019-04-21T23:23:32.043Z,39.29
2019-04-21T23:25:53.083Z,39.18
2019-04-21T23:28:20.899Z,39.45
2019-04-21T23:31:03.602Z,39.39
2019-04-21T23:33:15.730Z,39.84
2019-04-21T23:35:45.652Z,40.08
2019-04-21T23:38:14.311Z,39.89
2019-04-21T23:40:47.602Z,39.81
2019-04-21T23:43:20.532Z,40.26
2019-04-21T23:45:46.476Z,39.87
2019-04-21T23:48:31.587Z,40.32
2019-04-21T23:50:56.115Z,39.83
2019-04-21T23:53:17.411Z,39.30
2019-04-21T23:55:47.421Z,39.34
2019-04-21T23:58:22.299Z,39.55
